Whitman, NE (69366)

7:43 AM MDT on August 27, 2016 (GMT -0600)
Thedford | | Change Station
Active Advisory: Dense Fog Advisory

Elev 2927 ft 41.96 °N, 100.57 °W | Updated 8 minutes ago

Fog
Fog
54 °F
Feels Like 54 °F
N
4
Wind Variable Wind from SW

Today
High -- | Low -- °F
--% Chance of Precip.
Yesterday
High -- | Low -- °F
Precip. -- in
Pressure 30.08 in
Visibility 0.2 miles
Clouds Overcast 100 ft
Dew Point 54 °F
Humidity 99%
Rainfall 0.00 in
Snow Depth Not available.
6:07 AM 7:26 PM
Waning Crescent, 24% visible
METAR KTIF 271335Z AUTO 23003KT 1/4SM FG OVC001 13/12 A3008 RMK AO2 T01250123
Pressure 30.08 in
Visibility 0.2 miles
Clouds Overcast 100 ft
Dew Point 54 °F
Humidity 99%
Rainfall 0.00 in
Snow Depth Not available.
6:07 AM 7:26 PM
Waning Crescent, 24% visible
METAR KTIF 271335Z AUTO 23003KT 1/4SM FG OVC001 13/12 A3008 RMK AO2 T01250123

10-Day Weather Forecast

Almanac

Astronomy

Aug. 27, 2016 Rise Set
Actual Time
Civil Twilight
Nautical Twilight
Astronomical Twilight
Moon
Length of Visible Light
Length of Day
Tomorrow will be .
, % of the Moon is Illuminated

Today's Extremes

State Highs State Lows

Community

WunderPhotos

Upload Photos

1,935,339 photos uploaded!

WunderBlog® & News

Nearby

Air Quality

  Air Quality AQ Index Pollutant
Not available.

Snow Depth

Station Depth Elevation

Earthquake Activity

City Distance Mag. Time & Date
Minimum magnitude displayed is 2.5.

Coastal Water Temperatures

Place Temperature

Stations

Nearby Weather Stations

Station Location Temp. Windchill Dew Point Humidity Wind Precip. Elev Updated Type
                   

Watches & Warnings

Dense Fog Advisory
Issued: 6:03 AM MDT Aug. 27, 2016 – National Weather Service

... Dense fog advisory in effect until 8 am MDT this morning...

The National Weather Service in North Platte has issued a dense
fog advisory... which is in effect until 8 am MDT this morning.

* Timing: fog should dissipate by mid morning.

* Visibility: one quarter mile or less.

* Impacts: reduced visibility in patchy dense fog will make
travel difficult. Travelers should be prepared for sudden
drops in visibility over short distances this morning.

Precautionary/preparedness actions...

A dense fog advisory means visibilities will frequently be
reduced to less than one quarter mile. If driving... slow down...
use your headlights... and leave plenty of distance ahead of you.